RAAF Base Richmond
YSRI : now visible

Airfield :











YOU CAN JOIN US ON...

 
LOGIN :

Register | Disclaimer

   EN    FR    IT 

 









Legend :    VFR   Marginal VFR   IFR   Intensive IFR   Very Intensive IFR
Visi :
Ceiling :
>= 8 km
>= 3000ft
5 to 8 km
1000 to 3000 ft
1500m to 5 km
500 to 1000 ft
800 to 1500m
200 to 500 ft
< 800m
< 200 ft
Symbols :   Thunderstorms  Fog  Heavy snow  Heavy precipitations  Wind > 20 kt






- Airport Elevation : 67 ft


YSRI - RAAF Base Richmond

CURRENT METAR :
  • 240930Z AUTO 35005KT 9999 // NCD 19/05 Q1011 RF00.0/000.0

EXPIRED METARs :
  • 240900Z AUTO 29006KT 9999 // NCD 20/05 Q1011 RF00.0/000.0
  • 240830Z AUTO 28010KT 9999 // NCD 21/05 Q1010 RF00.0/000.0
  • 240800Z AUTO 27011KT 9999 // NCD 22/04 Q1010 RF00.0/000.0
  • 240730Z AUTO 28014KT 9999 // NCD 23/05 Q1010 RF00.0/000.0
  • 240700Z AUTO 28014KT 9999 // NCD 24/05 Q1009 RF00.0/000.0

TAF TAF YSRI
Valid from the 24 at 06:00 until the 25 at 06:00 UTC


240502Z 2406/2506 29015KT CAVOK
FM241000 VRB05KT CAVOK
FM242300 20008KT CAVOK
FM250300 15015KT 9999 SCT050
YMMM FIR / Oceania



MET'MAP, your aeronautical weather chart ! - Copyright ORBIFLY December 2007 - Disclaimer

ORBIFLY MET'MAP TEAM :

Programming & Development : Alexandra Zaïnal
Concept & original design : Baudouin d'Aumeries
Assistance for programming : Marc-Olivier Méhu
Technical & hardware support : Manuel Goepfert

Contact : metmap@orbifly.com




SOURCES & CREDITS :

   NOAA       Earth
Advisory